Time;durP1;ratioP1;P1;durP2;ratioP2;P2;SDS_P1;SDS_P2;PMS_P1;PMS_P2;Temp;Humidity;BMP_temperature;BMP_pressure;BME280_temperature;BME280_humidity;BME280_pressure;Samples;Min_cycle;Max_cycle;Signal;HPM_P1;HPM_P2
2023/11/05 00:00:21;;;;;;;40.75;12.63;;;;;;;8.26;81.90;95275.25;4996813;28;20058;-51
2023/11/05 00:02:48;;;;;;;42.88;12.38;;;;;;;8.28;82.46;95281.94;4998551;28;20049;-52
2023/11/05 00:05:15;;;;;;;34.47;10.65;;;;;;;8.31;82.15;95292.03;5002337;28;20092;-44
2023/11/05 00:07:42;;;;;;;47.03;11.57;;;;;;;8.33;82.18;95289.34;5002977;28;20043;-49
2023/11/05 00:10:10;;;;;;;48.97;12.63;;;;;;;8.35;82.56;95290.09;5002865;28;20098;-47
2023/11/05 00:12:37;;;;;;;43.58;12.57;;;;;;;8.36;82.55;95289.16;5001332;28;20056;-54
2023/11/05 00:15:04;;;;;;;37.35;11.45;;;;;;;8.38;82.65;95282.13;5001653;28;20072;-46
2023/11/05 00:17:31;;;;;;;44.08;12.55;;;;;;;8.38;81.94;95292.44;4999020;28;20054;-52
2023/11/05 00:19:58;;;;;;;47.95;12.48;;;;;;;8.39;82.36;95294.09;5002013;28;20057;-53
2023/11/05 00:22:25;;;;;;;51.88;14.05;;;;;;;8.39;82.40;95291.50;4999914;28;20518;-51
2023/11/05 00:24:51;;;;;;;42.38;12.57;;;;;;;8.40;82.15;95298.31;5002757;28;20056;-53
2023/11/05 00:27:18;;;;;;;49.55;13.55;;;;;;;8.41;81.77;95301.72;5002082;28;20135;-50
2023/11/05 00:29:45;;;;;;;47.28;13.43;;;;;;;8.41;82.37;95302.53;5001655;28;20049;-49
2023/11/05 00:32:11;;;;;;;51.83;13.98;;;;;;;8.42;82.62;95296.47;5001696;28;20053;-51
2023/11/05 00:34:38;;;;;;;53.78;14.18;;;;;;;8.46;82.49;95305.63;4997297;28;20057;-48
2023/11/05 00:37:05;;;;;;;54.05;15.10;;;;;;;8.47;81.98;95302.09;5000507;28;20057;-53
2023/11/05 00:39:31;;;;;;;55.35;16.00;;;;;;;8.48;82.54;95308.91;5002722;28;20081;-46
2023/11/05 00:41:58;;;;;;;43.50;13.48;;;;;;;8.51;81.99;95314.78;5004962;28;20495;-55
2023/11/05 00:44:25;;;;;;;43.10;12.40;;;;;;;8.52;82.18;95319.00;4998676;28;20048;-51
2023/11/05 00:46:51;;;;;;;47.20;14.45;;;;;;;8.51;82.61;95322.53;5000015;28;20050;-50
2023/11/05 00:49:18;;;;;;;49.28;13.88;;;;;;;8.52;82.50;95329.31;5001747;28;20049;-46
2023/11/05 00:51:46;;;;;;;47.20;13.55;;;;;;;8.52;81.99;95330.16;5000393;28;20049;-45
2023/11/05 00:54:13;;;;;;;47.03;13.35;;;;;;;8.53;82.21;95336.09;4999965;28;20041;-53
2023/11/05 00:56:40;;;;;;;43.25;12.18;;;;;;;8.53;83.03;95342.13;5001719;28;20057;-51
2023/11/05 00:59:06;;;;;;;42.80;11.75;;;;;;;8.54;82.44;95342.97;5000691;28;20049;-51
2023/11/05 01:01:33;;;;;;;43.42;12.65;;;;;;;8.55;82.74;95344.59;5000423;28;20058;-49
2023/11/05 01:04:00;;;;;;;38.13;11.27;;;;;;;8.55;82.70;95344.59;5001901;28;20423;-46
2023/11/05 01:06:27;;;;;;;30.52;9.63;;;;;;;8.53;82.29;95344.72;4999753;28;20057;-49
2023/11/05 01:08:54;;;;;;;24.58;8.95;;;;;;;8.51;82.35;95349.09;5003807;28;20133;-50
2023/11/05 01:11:20;;;;;;;26.90;9.80;;;;;;;8.51;82.39;95343.94;5006186;28;20050;-52
2023/11/05 01:13:47;;;;;;;35.75;9.32;;;;;;;8.53;82.81;95361.91;5007385;28;20053;-53
2023/11/05 01:16:14;;;;;;;25.63;8.80;;;;;;;8.53;82.19;95346.44;5007243;28;20046;-54
2023/11/05 01:18:41;;;;;;;25.45;8.45;;;;;;;8.53;82.55;95359.31;5008801;28;20134;-53
2023/11/05 01:21:08;;;;;;;24.05;8.13;;;;;;;8.54;82.59;95366.19;5007296;28;20058;-45
2023/11/05 01:23:35;;;;;;;27.00;9.30;;;;;;;8.55;83.06;95365.25;5003521;28;20045;-54
2023/11/05 01:26:01;;;;;;;26.20;8.90;;;;;;;8.56;82.18;95366.88;5008217;28;20053;-47
2023/11/05 01:28:28;;;;;;;29.13;9.57;;;;;;;8.57;82.40;95377.09;5005727;28;20071;-50
2023/11/05 01:30:55;;;;;;;30.10;8.98;;;;;;;8.58;82.50;95380.50;5008469;28;20038;-47
2023/11/05 01:33:21;;;;;;;27.70;9.07;;;;;;;8.58;82.47;95388.22;5009036;28;20046;-52
2023/11/05 01:35:48;;;;;;;24.88;8.07;;;;;;;8.59;82.77;95387.28;5000799;28;20049;-47
2023/11/05 01:38:15;;;;;;;25.55;7.72;;;;;;;8.60;82.42;95394.09;5005916;28;20041;-46
2023/11/05 01:40:41;;;;;;;25.85;8.90;;;;;;;8.60;82.69;95399.25;5004000;28;20045;-49
2023/11/05 01:43:08;;;;;;;24.00;8.30;;;;;;;8.61;82.95;95406.06;5008498;28;20045;-50
2023/11/05 01:45:35;;;;;;;29.90;10.40;;;;;;;8.61;82.72;95411.22;5006722;28;20521;-50
2023/11/05 01:48:02;;;;;;;28.15;9.05;;;;;;;8.59;83.16;95416.50;5000718;28;20044;-55
2023/11/05 01:50:28;;;;;;;21.00;6.97;;;;;;;8.58;82.73;95417.41;4997461;28;20058;-46
2023/11/05 01:52:56;;;;;;;20.02;9.43;;;;;;;8.58;83.15;95416.59;4998638;28;20771;-51
2023/11/05 01:55:23;;;;;;;23.73;6.63;;;;;;;8.59;82.76;95421.66;4996561;28;20187;-52
2023/11/05 01:57:52;;;;;;;16.83;6.50;;;;;;;8.58;82.64;95429.50;4999644;28;20060;-48
2023/11/05 02:00:21;;;;;;;19.20;7.47;;;;;;;8.56;83.12;95439.91;5000093;28;20639;-52
2023/11/05 02:02:49;;;;;;;22.00;8.32;;;;;;;8.58;83.30;95437.22;5000762;28;20136;-51
2023/11/05 02:05:16;;;;;;;21.45;8.30;;;;;;;8.57;82.74;95440.72;4997532;28;20458;-54
2023/11/05 02:07:43;;;;;;;18.08;7.75;;;;;;;8.57;82.42;95451.03;4996927;28;20053;-47
2023/11/05 02:10:10;;;;;;;23.17;8.32;;;;;;;8.56;82.57;95455.38;5002304;28;20056;-49
2023/11/05 02:12:37;;;;;;;21.55;8.30;;;;;;;8.55;83.10;95460.66;5000530;28;20057;-52
2023/11/05 02:15:05;;;;;;;26.50;8.65;;;;;;;8.56;83.26;95464.88;4999429;28;20054;-46
2023/11/05 02:17:32;;;;;;;22.73;8.13;;;;;;;8.56;83.23;95480.34;4998429;28;20053;-52
2023/11/05 02:19:59;;;;;;;14.07;6.65;;;;;;;8.55;82.82;95481.28;4993766;28;20045;-53
2023/11/05 02:22:30;;;;;;;23.88;6.97;;;;;;;8.56;82.21;95490.66;4999614;28;20136;-46
2023/11/05 02:24:57;;;;;;;18.83;7.63;;;;;;;8.55;82.73;95491.59;4998092;28;20057;-48
2023/11/05 02:27:25;;;;;;;21.75;9.02;;;;;;;8.56;83.37;95493.22;4999113;28;20081;-56
2023/11/05 02:29:52;;;;;;;20.48;7.97;;;;;;;8.55;83.46;95499.31;4998721;28;20048;-49
2023/11/05 02:32:19;;;;;;;21.60;7.95;;;;;;;8.56;83.09;95503.53;5002879;28;20050;-48
2023/11/05 02:34:48;;;;;;;22.73;8.35;;;;;;;8.56;83.31;95503.53;4998786;28;20049;-55
2023/11/05 02:37:14;;;;;;;22.00;7.43;;;;;;;8.57;82.87;95512.91;4998662;28;20041;-45
2023/11/05 02:39:41;;;;;;;23.30;7.97;;;;;;;8.56;83.00;95521.59;4998031;28;20096;-51
2023/11/05 02:42:08;;;;;;;22.20;8.70;;;;;;;8.57;82.85;95528.41;4999678;28;20041;-45
2023/11/05 02:44:34;;;;;;;15.15;5.70;;;;;;;8.56;82.92;95524.19;4999372;28;20050;-53
2023/11/05 02:47:02;;;;;;;18.40;8.02;;;;;;;8.56;82.83;95521.59;4999825;28;20484;-50
2023/11/05 02:49:29;;;;;;;12.32;5.60;;;;;;;8.53;83.04;95532.09;4999728;28;20112;-46
2023/11/05 02:51:55;;;;;;;15.85;6.55;;;;;;;8.52;82.87;95533.84;4995572;28;20104;-54
2023/11/05 02:54:22;;;;;;;13.85;6.03;;;;;;;8.52;83.18;95535.59;4997238;28;20054;-43
2023/11/05 02:56:49;;;;;;;8.60;4.22;;;;;;;8.48;83.40;95540.94;5000583;28;20052;-54
2023/11/05 02:59:18;;;;;;;7.93;4.40;;;;;;;8.42;83.66;95541.38;4997900;28;20050;-48
2023/11/05 03:01:45;;;;;;;13.55;6.82;;;;;;;8.45;83.27;95548.88;4997845;28;20678;-47
2023/11/05 03:04:12;;;;;;;12.52;4.88;;;;;;;8.44;83.77;95554.97;4996190;28;20045;-45
2023/11/05 03:06:39;;;;;;;8.98;3.50;;;;;;;8.43;83.03;95552.50;5002508;28;20082;-56
2023/11/05 03:09:06;;;;;;;10.73;5.20;;;;;;;8.43;83.53;95558.50;5006858;28;20118;-52
2023/11/05 03:11:33;;;;;;;9.88;4.78;;;;;;;8.44;82.84;95554.97;5000185;28;20054;-49
2023/11/05 03:13:59;;;;;;;11.15;5.47;;;;;;;8.44;83.74;95570.44;4996387;28;20488;-45
2023/11/05 03:16:26;;;;;;;11.75;5.45;;;;;;;8.45;83.70;95572.09;4999750;28;20056;-47
2023/11/05 03:18:53;;;;;;;14.45;6.00;;;;;;;8.45;83.74;95574.66;4999429;28;20129;-49
2023/11/05 03:21:19;;;;;;;12.68;6.10;;;;;;;8.45;83.66;95582.41;4997155;28;20049;-53
2023/11/05 03:23:46;;;;;;;9.50;4.65;;;;;;;8.42;83.82;95585.22;4999328;28;20055;-54
2023/11/05 03:26:12;;;;;;;13.18;5.25;;;;;;;8.44;83.12;95591.06;4998676;28;20076;-45
2023/11/05 03:28:39;;;;;;;10.55;4.50;;;;;;;8.44;83.83;95595.44;4998001;28;20049;-56
2023/11/05 03:31:06;;;;;;;10.90;4.43;;;;;;;8.45;83.48;95600.44;4999655;28;20149;-43
2023/11/05 03:33:33;;;;;;;10.15;4.35;;;;;;;8.44;83.82;95600.59;4998161;28;20054;-44
2023/11/05 03:36:00;;;;;;;6.43;3.40;;;;;;;8.43;83.55;95610.06;4998885;28;20077;-51
2023/11/05 03:38:27;;;;;;;7.18;2.53;;;;;;;8.41;83.15;95611.09;5002356;28;20046;-49
2023/11/05 03:40:54;;;;;;;7.43;3.30;;;;;;;8.40;83.09;95620.56;5002536;28;20053;-49
2023/11/05 03:43:20;;;;;;;7.78;3.83;;;;;;;8.39;83.75;95626.66;5002220;28;20037;-56
2023/11/05 03:45:47;;;;;;;6.53;3.63;;;;;;;8.40;82.89;95636.03;5002341;28;20531;-51
2023/11/05 03:48:13;;;;;;;5.38;2.92;;;;;;;8.39;83.10;95634.41;5002271;28;20053;-58
2023/11/05 03:50:41;;;;;;;5.72;2.78;;;;;;;8.36;82.72;95639.75;5003128;28;20506;-55
2023/11/05 03:53:08;;;;;;;8.27;3.17;;;;;;;8.36;83.49;95644.91;5002709;28;20125;-45
2023/11/05 03:55:34;;;;;;;9.60;4.20;;;;;;;8.34;83.42;95651.88;4999875;28;20046;-44
2023/11/05 03:58:01;;;;;;;6.88;2.92;;;;;;;8.33;83.39;95655.41;5002205;28;20050;-47
2023/11/05 04:00:29;;;;;;;11.35;4.25;;;;;;;8.33;83.49;95657.97;4998588;28;20064;-50
2023/11/05 04:02:56;;;;;;;15.23;4.85;;;;;;;8.33;83.13;95670.88;5002267;28;20057;-53
2023/11/05 04:05:23;;;;;;;10.15;4.40;;;;;;;8.28;83.24;95668.56;5000154;28;20123;-51
2023/11/05 04:07:50;;;;;;;9.70;4.78;;;;;;;8.28;83.75;95678.09;5006602;28;20072;-45
2023/11/05 04:10:16;;;;;;;15.30;4.95;;;;;;;8.30;82.96;95683.94;5001255;28;20726;-46
2023/11/05 04:12:43;;;;;;;11.25;5.45;;;;;;;8.29;83.17;95692.63;5002100;28;20049;-47
2023/11/05 04:15:10;;;;;;;13.60;6.75;;;;;;;8.30;83.15;95697.69;5002401;28;20074;-54
2023/11/05 04:17:37;;;;;;;18.73;7.63;;;;;;;8.32;83.49;95705.31;5001207;28;20046;-48
2023/11/05 04:20:04;;;;;;;16.27;7.78;;;;;;;8.29;82.90;95708.91;5001643;28;20050;-44
2023/11/05 04:22:34;;;;;;;15.98;8.07;;;;;;;8.29;83.65;95711.50;5000806;28;20077;-54
2023/11/05 04:25:01;;;;;;;14.90;8.10;;;;;;;8.29;82.43;95716.66;5001792;28;20413;-47
2023/11/05 04:27:28;;;;;;;18.15;8.07;;;;;;;8.27;83.31;95722.84;4999077;28;20135;-50
2023/11/05 04:29:54;;;;;;;14.18;7.03;;;;;;;8.26;83.05;95731.47;5003168;28;20105;-50
2023/11/05 04:32:22;;;;;;;23.40;10.32;;;;;;;8.23;82.54;95733.34;4999513;28;20054;-51
2023/11/05 04:34:49;;;;;;;21.20;8.45;;;;;;;8.26;82.68;95741.78;5008482;28;20496;-48
2023/11/05 04:37:15;;;;;;;19.85;8.75;;;;;;;8.23;82.81;95746.22;5001625;28;20104;-46
2023/11/05 04:39:42;;;;;;;14.73;4.72;;;;;;;8.16;82.62;95747.53;5004988;28;20483;-47
2023/11/05 04:42:10;;;;;;;15.85;6.18;;;;;;;8.13;82.65;95752.84;4998114;28;20053;-48
2023/11/05 04:44:37;;;;;;;17.95;8.00;;;;;;;8.08;83.24;95749.75;5002933;28;20049;-50
2023/11/05 04:47:05;;;;;;;17.00;8.57;;;;;;;8.03;82.90;95764.66;5001031;28;20058;-52
2023/11/05 04:49:32;;;;;;;15.23;7.45;;;;;;;8.00;82.21;95767.44;5003863;28;20558;-47
2023/11/05 04:51:59;;;;;;;17.77;8.73;;;;;;;7.94;82.63;95769.44;5008679;28;20513;-46
2023/11/05 04:54:26;;;;;;;17.20;8.20;;;;;;;7.89;82.89;95779.22;5009932;28;20049;-52
2023/11/05 04:56:52;;;;;;;13.52;6.53;;;;;;;7.85;83.12;95780.31;5009607;28;20049;-43
2023/11/05 04:59:19;;;;;;;17.40;6.93;;;;;;;7.82;82.59;95785.66;5009105;28;20098;-51
2023/11/05 05:01:46;;;;;;;13.25;6.80;;;;;;;7.84;82.56;95788.97;5006888;28;20068;-49
2023/11/05 05:04:13;;;;;;;15.38;5.97;;;;;;;7.83;82.95;95792.47;5004729;28;20056;-49
2023/11/05 05:06:41;;;;;;;14.18;6.15;;;;;;;7.81;82.50;95794.31;5008024;28;20052;-53
2023/11/05 05:09:09;;;;;;;14.77;6.20;;;;;;;7.81;83.15;95799.47;5006632;28;20050;-55
2023/11/05 05:11:36;;;;;;;15.48;6.32;;;;;;;7.83;82.25;95807.91;5000784;28;20112;-49
2023/11/05 05:14:02;;;;;;;7.93;4.30;;;;;;;7.77;82.98;95814.25;5007607;28;20045;-51
2023/11/05 05:16:29;;;;;;;9.95;3.78;;;;;;;7.79;82.20;95814.16;5008836;28;20108;-48
2023/11/05 05:18:56;;;;;;;13.80;6.03;;;;;;;7.80;82.89;95826.97;5001784;28;20053;-45
2023/11/05 05:21:23;;;;;;;5.43;3.22;;;;;;;7.77;83.08;95829.72;5000893;28;20049;-50
2023/11/05 05:23:49;;;;;;;10.82;4.85;;;;;;;7.79;82.39;95834.78;5002781;28;20045;-47
2023/11/05 05:26:17;;;;;;;6.97;3.70;;;;;;;7.80;82.25;95839.03;5002425;28;20531;-51
2023/11/05 05:28:47;;;;;;;7.25;3.88;;;;;;;7.78;83.35;95840.84;4999776;28;20049;-50
2023/11/05 05:31:15;;;;;;;10.82;4.82;;;;;;;7.80;82.91;95854.47;5004188;28;20046;-48
2023/11/05 05:33:43;;;;;;;12.00;3.33;;;;;;;7.78;82.24;95857.16;5000625;28;20115;-48
2023/11/05 05:36:11;;;;;;;4.38;2.25;;;;;;;7.76;82.45;95868.44;5005948;28;20470;-53
2023/11/05 05:38:37;;;;;;;6.63;3.67;;;;;;;7.77;83.04;95877.84;5003846;28;20042;-44
2023/11/05 05:41:04;;;;;;;4.15;2.35;;;;;;;7.68;82.32;95892.91;4997240;28;20092;-49
2023/11/05 05:43:31;;;;;;;6.53;1.95;;;;;;;7.66;82.61;95896.47;5005176;28;20053;-51
2023/11/05 05:45:58;;;;;;;6.50;3.20;;;;;;;7.71;83.18;95902.22;5004207;28;20056;-46
2023/11/05 05:48:24;;;;;;;10.43;3.47;;;;;;;7.69;83.23;95907.44;5004957;28;20058;-53
2023/11/05 05:50:51;;;;;;;5.15;3.10;;;;;;;7.67;81.83;95911.84;5001923;28;20050;-56
2023/11/05 05:53:18;;;;;;;6.82;2.70;;;;;;;7.69;82.32;95919.47;5004215;28;20050;-51
2023/11/05 05:55:44;;;;;;;7.35;4.20;;;;;;;7.67;81.96;95922.13;5007171;28;20396;-53
2023/11/05 05:58:12;;;;;;;7.93;3.28;;;;;;;7.62;82.20;95929.31;5004131;28;20499;-56
2023/11/05 06:00:39;;;;;;;8.65;2.95;;;;;;;7.66;81.91;95938.53;4997632;28;20297;-52
2023/11/05 06:03:06;;;;;;;6.22;3.15;;;;;;;7.68;82.44;95949.56;5003555;28;20088;-46
2023/11/05 06:05:32;;;;;;;6.05;1.95;;;;;;;7.62;82.36;95954.22;5003531;28;20045;-51
2023/11/05 06:07:59;;;;;;;3.72;2.47;;;;;;;7.70;83.28;95958.03;4997211;28;20054;-49
2023/11/05 06:10:26;;;;;;;4.90;1.55;;;;;;;7.71;82.44;95977.72;5006010;28;20054;-44
2023/11/05 06:12:53;;;;;;;5.47;3.00;;;;;;;7.76;82.62;95974.03;4998243;28;20049;-50
2023/11/05 06:15:19;;;;;;;4.70;2.92;;;;;;;7.77;82.69;95983.44;5001407;28;20073;-51
2023/11/05 06:17:46;;;;;;;6.72;3.70;;;;;;;7.76;82.60;95987.75;4997906;28;20408;-54
2023/11/05 06:20:13;;;;;;;6.22;2.33;;;;;;;7.82;83.24;95996.88;4999347;28;20056;-50
2023/11/05 06:22:39;;;;;;;4.75;2.05;;;;;;;7.80;82.98;95998.72;5004818;28;20073;-53
2023/11/05 06:25:09;;;;;;;4.15;2.67;;;;;;;7.85;82.64;95996.72;5000312;28;20061;-54
2023/11/05 06:27:38;;;;;;;4.57;1.70;;;;;;;7.84;82.31;96000.22;4998407;28;20058;-53
2023/11/05 06:30:06;;;;;;;7.07;1.92;;;;;;;7.84;82.11;96011.34;5001730;28;20072;-54
2023/11/05 06:32:33;;;;;;;7.05;3.13;;;;;;;7.86;82.87;96029.28;5016473;28;20047;-49
2023/11/05 06:35:01;;;;;;;10.50;2.88;;;;;;;7.86;82.02;96034.44;5001711;28;20046;-51
2023/11/05 06:37:30;;;;;;;5.43;2.38;;;;;;;7.83;82.07;96047.47;5004943;28;20049;-49
2023/11/05 06:39:57;;;;;;;9.95;2.50;;;;;;;7.86;82.64;96049.88;5004460;28;20077;-53
2023/11/05 06:42:24;;;;;;;3.95;2.35;;;;;;;7.85;82.88;96068.84;4999905;28;20045;-48
2023/11/05 06:44:51;;;;;;;6.45;2.47;;;;;;;7.86;82.57;96080.81;5002957;28;20045;-54
2023/11/05 06:47:18;;;;;;;5.05;2.58;;;;;;;7.87;81.81;96087.59;4999697;28;20141;-56
2023/11/05 06:49:45;;;;;;;9.82;2.47;;;;;;;7.83;82.08;96099.00;4998290;28;20129;-54
2023/11/05 06:52:12;;;;;;;5.15;3.00;;;;;;;7.86;82.19;96108.34;5000344;28;20046;-50
2023/11/05 06:54:41;;;;;;;4.05;2.15;;;;;;;7.75;82.44;96106.31;4998451;28;20062;-46
2023/11/05 06:57:09;;;;;;;3.58;2.22;;;;;;;7.83;82.93;96109.31;4998347;28;20042;-51
2023/11/05 06:59:36;;;;;;;3.90;1.75;;;;;;;7.81;82.53;96118.88;4997397;28;20045;-48
2023/11/05 07:02:03;;;;;;;4.03;2.55;;;;;;;7.82;81.75;96117.97;5011391;28;20414;-51
2023/11/05 07:04:31;;;;;;;7.43;3.15;;;;;;;7.82;82.38;96131.69;4996903;28;20439;-50
2023/11/05 07:07:00;;;;;;;3.05;1.95;;;;;;;7.77;82.60;96131.09;5000506;28;20056;-48
2023/11/05 07:09:27;;;;;;;3.33;1.67;;;;;;;7.71;82.35;96139.97;4998380;28;20050;-55
2023/11/05 07:11:54;;;;;;;6.40;2.03;;;;;;;7.65;81.47;96145.47;5006400;28;20046;-52
2023/11/05 07:14:20;;;;;;;4.28;1.65;;;;;;;7.63;82.55;96149.88;5001535;28;20049;-55
2023/11/05 07:16:47;;;;;;;4.30;1.73;;;;;;;7.56;82.64;96163.97;5004338;28;20053;-56
2023/11/05 07:19:14;;;;;;;6.40;2.13;;;;;;;7.64;81.66;96168.72;5001521;28;20050;-56
2023/11/05 07:21:43;;;;;;;4.72;1.55;;;;;;;7.63;81.71;96183.34;5003757;28;20049;-52
2023/11/05 07:24:10;;;;;;;6.63;2.72;;;;;;;7.63;82.32;96188.50;5003077;28;20049;-53
2023/11/05 07:26:37;;;;;;;4.28;1.85;;;;;;;7.58;81.66;96200.78;5003962;28;20042;-50
2023/11/05 07:29:03;;;;;;;8.85;2.63;;;;;;;7.65;81.56;96207.28;5002142;28;20060;-51
2023/11/05 07:31:30;;;;;;;5.43;1.70;;;;;;;7.59;82.13;96215.31;5002012;28;20050;-53
2023/11/05 07:33:57;;;;;;;2.05;1.70;;;;;;;7.59;82.51;96223.88;5004035;28;20096;-49
2023/11/05 07:36:24;;;;;;;3.53;1.67;;;;;;;7.55;81.59;96235.25;5010388;28;20057;-51
2023/11/05 07:38:50;;;;;;;3.67;2.13;;;;;;;7.62;82.37;96252.94;5005346;28;20616;-44
2023/11/05 07:41:17;;;;;;;1.92;1.10;;;;;;;7.66;81.83;96259.59;4995822;28;20058;-52
2023/11/05 07:43:44;;;;;;;6.10;2.28;;;;;;;7.80;82.42;96261.50;5003006;28;20042;-53
2023/11/05 07:46:11;;;;;;;4.82;2.20;;;;;;;7.92;82.06;96273.72;4997228;28;20054;-56
2023/11/05 07:48:38;;;;;;;4.97;2.17;;;;;;;8.07;81.94;96278.97;4992964;28;20061;-47
2023/11/05 07:51:05;;;;;;;5.93;2.10;;;;;;;8.17;81.03;96274.97;4999507;28;20084;-47
2023/11/05 07:53:31;;;;;;;6.20;3.22;;;;;;;8.27;81.17;96285.63;4998004;28;20403;-53
2023/11/05 07:55:59;;;;;;;4.45;2.50;;;;;;;8.39;80.75;96297.03;5000078;28;20100;-51
2023/11/05 07:58:26;;;;;;;4.38;1.65;;;;;;;8.25;80.13;96304.66;4997825;28;20133;-44
2023/11/05 08:00:53;;;;;;;3.45;1.55;;;;;;;8.14;80.25;96311.22;4995751;28;20100;-54
2023/11/05 08:03:22;;;;;;;5.43;2.38;;;;;;;8.07;79.92;96312.47;4998608;28;20100;-51
2023/11/05 08:05:49;;;;;;;4.75;2.67;;;;;;;8.06;80.81;96321.09;4995662;28;20057;-48
2023/11/05 08:08:15;;;;;;;5.63;2.42;;;;;;;7.95;80.33;96317.38;4993838;28;20041;-56
2023/11/05 08:10:42;;;;;;;6.00;1.77;;;;;;;7.94;80.71;96326.00;4998130;28;20049;-52
2023/11/05 08:13:09;;;;;;;5.22;3.40;;;;;;;7.93;80.67;96329.50;4998232;28;20418;-53
2023/11/05 08:15:35;;;;;;;7.28;2.45;;;;;;;7.93;80.75;96333.78;4996530;28;20050;-46
2023/11/05 08:18:02;;;;;;;11.48;3.45;;;;;;;7.95;81.08;96348.28;4997554;28;20106;-52
2023/11/05 08:20:29;;;;;;;5.78;3.13;;;;;;;8.05;80.86;96348.66;4992310;28;20058;-49
2023/11/05 08:22:56;;;;;;;8.65;3.13;;;;;;;8.23;81.62;96346.00;4997810;28;20050;-48
2023/11/05 08:25:23;;;;;;;5.20;2.65;;;;;;;8.31;81.98;96355.91;4996143;28;20100;-52
2023/11/05 08:27:50;;;;;;;6.18;3.20;;;;;;;8.45;80.66;96370.66;4996720;28;20137;-48
2023/11/05 08:30:23;;;;;;;6.88;3.00;;;;;;;8.41;81.59;96369.16;4993216;28;20141;-47
2023/11/05 08:32:51;;;;;;;6.60;3.15;;;;;;;8.44;80.85;96372.38;4997816;28;20503;-48
2023/11/05 08:35:18;;;;;;;6.50;3.13;;;;;;;8.59;80.91;96382.84;4996103;28;20045;-57
2023/11/05 08:37:47;;;;;;;5.00;2.17;;;;;;;8.70;81.36;96388.25;4998645;28;20049;-54
2023/11/05 08:40:15;;;;;;;4.70;2.20;;;;;;;8.77;81.05;96399.06;4999857;28;20045;-54
2023/11/05 08:42:42;;;;;;;2.47;1.75;;;;;;;9.22;80.68;96399.19;4998183;28;20128;-51
2023/11/05 08:45:09;;;;;;;9.48;3.78;;;;;;;9.66;79.52;96407.06;4998730;28;20053;-52
2023/11/05 08:47:36;;;;;;;3.70;2.47;;;;;;;9.86;78.73;96420.63;4995452;28;20065;-53
2023/11/05 08:50:06;;;;;;;10.10;3.63;;;;;;;10.17;78.25;96423.97;5001982;28;20077;-49
2023/11/05 08:52:33;;;;;;;7.05;4.18;;;;;;;10.38;77.74;96432.22;5002667;28;20045;-47
2023/11/05 08:55:03;;;;;;;4.07;2.65;;;;;;;10.28;76.46;96431.09;4992318;28;20077;-49
2023/11/05 08:57:30;;;;;;;3.75;2.38;;;;;;;10.06;76.71;96441.88;4995524;28;20050;-50
2023/11/05 08:59:56;;;;;;;5.28;2.85;;;;;;;10.33;76.77;96443.75;4995183;28;20100;-54
2023/11/05 09:02:24;;;;;;;8.52;3.55;;;;;;;10.35;75.94;96452.25;5003270;28;20050;-50
2023/11/05 09:04:58;;;;;;;8.55;3.45;;;;;;;10.15;76.71;96455.09;4996248;28;20572;-47
2023/11/05 09:07:25;;;;;;;15.85;5.05;;;;;;;10.46;77.29;96465.41;4994957;28;20042;-49
2023/11/05 09:09:52;;;;;;;7.32;4.43;;;;;;;10.88;76.68;96472.41;4989869;28;20411;-52
2023/11/05 09:12:19;;;;;;;5.63;3.20;;;;;;;11.03;75.99;96471.47;4996938;28;20053;-49
2023/11/05 09:14:46;;;;;;;9.77;4.45;;;;;;;10.92;74.75;96482.47;4992265;28;20058;-55
2023/11/05 09:17:12;;;;;;;5.22;3.17;;;;;;;10.62;74.81;96490.34;5004767;28;20061;-50
2023/11/05 09:19:40;;;;;;;5.07;2.58;;;;;;;10.47;75.20;96500.69;4997312;28;20050;-50
2023/11/05 09:22:07;;;;;;;3.65;2.60;;;;;;;10.38;76.20;96511.56;5017301;28;20558;-46
2023/11/05 09:24:34;;;;;;;5.47;2.20;;;;;;;10.23;75.84;96518.47;4994427;28;20054;-51
2023/11/05 09:27:01;;;;;;;7.70;2.78;;;;;;;10.38;76.23;96524.50;4991844;28;20404;-52
2023/11/05 09:29:28;;;;;;;3.40;2.00;;;;;;;10.63;76.26;96530.81;5002530;28;20054;-47
2023/11/05 09:31:55;;;;;;;3.60;1.95;;;;;;;11.04;75.97;96537.84;4999460;28;20101;-51
2023/11/05 09:34:23;;;;;;;3.88;1.65;;;;;;;11.14;75.91;96547.63;4993478;28;20050;-51
2023/11/05 09:36:49;;;;;;;6.53;2.92;;;;;;;11.07;75.08;96556.72;5000046;28;20054;-48
2023/11/05 09:39:16;;;;;;;9.23;1.80;;;;;;;10.98;75.71;96561.53;4995707;28;20511;-48
2023/11/05 09:41:43;;;;;;;8.02;2.75;;;;;;;10.91;75.90;96568.84;4994674;28;20534;-55
2023/11/05 09:44:10;;;;;;;4.65;1.85;;;;;;;10.95;76.41;96574.69;5002080;28;20057;-50
2023/11/05 09:46:39;;;;;;;5.18;1.77;;;;;;;10.99;75.87;96578.75;4996961;28;20050;-50
2023/11/05 09:49:06;;;;;;;3.70;1.90;;;;;;;11.18;76.54;96585.41;4998341;28;20054;-51
2023/11/05 09:51:33;;;;;;;8.02;2.25;;;;;;;11.28;76.96;96583.88;5000964;28;20054;-48
2023/11/05 09:54:00;;;;;;;6.72;1.70;;;;;;;11.45;76.33;96597.56;4994560;28;20514;-47
2023/11/05 09:56:26;;;;;;;7.68;2.35;;;;;;;11.44;75.81;96595.91;4996991;28;20054;-54
2023/11/05 09:58:53;;;;;;;3.28;1.02;;;;;;;11.38;76.25;96610.06;4998795;28;20058;-47
2023/11/05 10:01:20;;;;;;;3.33;1.45;;;;;;;11.38;75.97;96611.84;4994448;28;20049;-53
2023/11/05 10:03:46;;;;;;;4.68;1.88;;;;;;;11.46;76.05;96619.97;4993611;28;20100;-48
2023/11/05 10:06:18;;;;;;;4.45;1.88;;;;;;;11.79;75.36;96621.38;5005061;28;20053;-50
2023/11/05 10:08:45;;;;;;;2.38;1.23;;;;;;;11.88;75.84;96619.97;5000913;28;20046;-50
2023/11/05 10:11:12;;;;;;;4.13;1.38;;;;;;;11.80;75.50;96633.44;5001348;28;20042;-50
2023/11/05 10:13:39;;;;;;;2.38;1.25;;;;;;;11.71;74.53;96641.78;5004148;28;20056;-52
2023/11/05 10:16:06;;;;;;;3.55;1.98;;;;;;;11.66;74.84;96643.81;5004708;28;20088;-51
2023/11/05 10:18:36;;;;;;;2.40;0.90;;;;;;;11.66;75.02;96651.59;5004684;28;20049;-52
2023/11/05 10:21:04;;;;;;;2.08;1.27;;;;;;;11.67;74.71;96655.84;5003359;28;20054;-52
2023/11/05 10:23:50;;;;;;;4.65;1.30;;;;;;;11.87;75.46;96664.16;5007071;28;20037;-52
2023/11/05 10:26:33;;;;;;;2.13;1.48;;;;;;;12.10;74.77;96667.09;5003893;28;20072;-55
2023/11/05 10:29:01;;;;;;;;;;;;;;;12.21;74.93;96669.84;5006963;28;20419;-58
2023/11/05 10:31:29;;;;;;;3.70;1.42;;;;;;;12.44;74.31;96681.34;5009574;28;20370;-57
2023/11/05 10:33:57;;;;;;;7.05;2.40;;;;;;;12.51;73.93;96678.34;5006180;28;20042;-50
2023/11/05 10:36:26;;;;;;;4.93;1.83;;;;;;;12.44;72.82;96688.28;5005169;28;20096;-53
2023/11/05 10:38:54;;;;;;;4.35;1.60;;;;;;;12.37;72.86;96692.19;5002040;28;20058;-45
2023/11/05 10:41:21;;;;;;;6.82;2.03;;;;;;;12.32;73.37;96690.75;5002943;28;20042;-56
2023/11/05 10:43:49;;;;;;;2.72;1.55;;;;;;;12.26;73.64;96693.72;5008618;28;20045;-56
2023/11/05 10:46:19;;;;;;;2.97;1.30;;;;;;;12.24;73.73;96713.75;5002273;28;20145;-55
2023/11/05 10:48:50;;;;;;;4.38;2.22;;;;;;;12.21;72.84;96713.94;4998607;28;20471;-50
2023/11/05 10:51:22;;;;;;;3.88;1.33;;;;;;;12.14;73.24;96708.31;4998015;28;20038;-50
2023/11/05 10:53:49;;;;;;;2.75;1.38;;;;;;;12.13;73.57;96723.97;4996937;28;20065;-53
2023/11/05 10:56:36;;;;;;;2.80;1.10;;;;;;;12.13;73.45;96731.75;4998830;28;20046;-48
2023/11/05 10:59:03;;;;;;;1.23;0.80;;;;;;;12.21;72.92;96737.28;4998463;28;20085;-50
2023/11/05 11:01:31;;;;;;;3.53;1.55;;;;;;;12.27;73.38;96739.50;4997280;28;20034;-55
2023/11/05 11:06:45;;;;;;;1.95;1.65;;;;;;;12.33;73.11;96743.47;5012397;28;20422;-50
2023/11/05 11:11:49;;;;;;;6.60;0.70;;;;;;;12.60;73.08;96756.44;5100478;27;20421;-56
2023/11/05 11:14:16;;;;;;;2.42;2.08;;;;;;;12.63;72.53;96750.22;5072765;28;20441;-54
2023/11/05 11:16:43;;;;;;;4.63;1.70;;;;;;;12.62;72.17;96747.72;5073173;28;20131;-52
2023/11/05 11:19:12;;;;;;;1.50;0.98;;;;;;;12.58;72.06;96758.31;5067743;28;20515;-53
2023/11/05 11:21:49;;;;;;;2.00;1.02;;;;;;;12.53;71.04;96762.16;5071285;28;20494;-50
2023/11/05 11:27:14;;;;;;;1.52;1.42;;;;;;;12.62;71.41;96768.50;5008375;28;20407;-47
2023/11/05 11:29:42;;;;;;;1.67;0.80;;;;;;;12.60;71.30;96755.63;5003446;28;20050;-53
2023/11/05 11:32:09;;;;;;;1.35;0.55;;;;;;;12.67;71.20;96761.25;4984755;28;20054;-43
2023/11/05 11:34:41;;;;;;;3.63;1.08;;;;;;;12.62;69.93;96763.28;4987445;28;20054;-46
2023/11/05 11:37:08;;;;;;;4.38;1.42;;;;;;;12.54;70.64;96777.63;4987683;28;20145;-52
2023/11/05 11:39:35;;;;;;;1.25;1.05;;;;;;;12.42;70.01;96765.41;4993775;28;20503;-50
2023/11/05 11:42:03;;;;;;;0.50;0.40;;;;;;;12.30;68.87;96780.00;4988294;28;20157;-45
2023/11/05 11:44:29;;;;;;;3.17;1.42;;;;;;;12.29;70.46;96791.31;4989448;28;20492;-49